Time;durP1;ratioP1;P1;durP2;ratioP2;P2;SDS_P1;SDS_P2;PMS_P1;PMS_P2;Temp;Humidity;BMP_temperature;BMP_pressure;BME280_temperature;BME280_humidity;BME280_pressure;Samples;Min_cycle;Max_cycle;Signal;HPM_P1;HPM_P2
2022/04/15 00:00:09;;;;;;;36.50;15.87;;;6.90;99.90;;;;;;5051870;28;20219;-66
2022/04/15 00:02:37;;;;;;;27.83;13.40;;;6.90;99.90;;;;;;5051392;28;20247;-66
2022/04/15 00:05:29;;;;;;;24.97;12.93;;;6.90;99.90;;;;;;5051862;28;20737;-65
2022/04/15 00:07:52;;;;;;;29.30;15.63;;;6.90;99.90;;;;;;5051289;28;20589;-65
2022/04/15 00:10:19;;;;;;;32.97;15.40;;;6.90;99.90;;;;;;5051380;28;20232;-65
2022/04/15 00:12:45;;;;;;;38.30;17.40;;;6.80;99.90;;;;;;5051789;28;20211;-66
2022/04/15 00:15:14;;;;;;;38.23;17.83;;;6.80;99.90;;;;;;5051889;28;20577;-66
2022/04/15 00:17:41;;;;;;;41.53;19.60;;;6.80;99.90;;;;;;5053181;28;20205;-65
2022/04/15 00:20:10;;;;;;;37.63;17.83;;;6.80;99.90;;;;;;5055727;28;20219;-66
2022/04/15 00:22:36;;;;;;;45.93;20.20;;;6.80;99.90;;;;;;5055430;28;20205;-66
2022/04/15 00:25:04;;;;;;;42.90;20.40;;;6.70;99.90;;;;;;5055652;28;20565;-65
2022/04/15 00:27:31;;;;;;;44.93;20.63;;;6.70;99.90;;;;;;5055684;28;20677;-66
2022/04/15 00:29:57;;;;;;;38.37;17.67;;;6.70;99.90;;;;;;5055155;28;20233;-66
2022/04/15 00:32:26;;;;;;;40.87;20.47;;;6.60;99.90;;;;;;5055540;28;20714;-65
2022/04/15 00:34:53;;;;;;;46.50;24.07;;;6.60;99.90;;;;;;5055036;28;20387;-65
2022/04/15 00:37:20;;;;;;;40.43;20.07;;;6.60;99.90;;;;;;5055467;28;20205;-65
2022/04/15 00:39:47;;;;;;;38.17;19.67;;;6.60;99.90;;;;;;5055442;28;20584;-66
2022/04/15 00:42:14;;;;;;;45.47;20.20;;;6.60;99.90;;;;;;5055349;28;20223;-65
2022/04/15 00:44:41;;;;;;;42.37;19.57;;;6.50;99.90;;;;;;5055125;28;20201;-67
2022/04/15 00:47:10;;;;;;;36.57;17.07;;;6.60;99.90;;;;;;5055427;28;20209;-65
2022/04/15 00:49:38;;;;;;;34.70;15.80;;;6.50;99.90;;;;;;5055423;28;20566;-66
2022/04/15 00:52:09;;;;;;;31.80;15.57;;;6.50;99.90;;;;;;5055178;28;20573;-65
2022/04/15 00:54:39;;;;;;;43.43;20.53;;;6.50;99.90;;;;;;5054799;28;20190;-66
2022/04/15 00:57:09;;;;;;;41.07;18.13;;;6.50;99.90;;;;;;5055218;28;20225;-65
2022/04/15 00:59:38;;;;;;;33.93;15.97;;;6.50;99.90;;;;;;5055083;28;20189;-66
2022/04/15 01:02:05;;;;;;;26.73;14.17;;;6.50;99.90;;;;;;5055018;28;20197;-65
2022/04/15 01:04:33;;;;;;;21.53;11.37;;;6.40;99.90;;;;;;5054956;28;20565;-66
2022/04/15 01:07:05;;;;;;;19.37;10.53;;;6.40;99.90;;;;;;5054998;28;20342;-66
2022/04/15 01:09:33;;;;;;;20.70;10.30;;;6.40;99.90;;;;;;5054831;28;20628;-66
2022/04/15 01:12:04;;;;;;;18.03;9.53;;;6.40;99.90;;;;;;5054654;28;20275;-66
2022/04/15 01:14:32;;;;;;;18.87;10.30;;;6.50;99.90;;;;;;5054812;28;20197;-65
2022/04/15 01:17:00;;;;;;;21.23;10.27;;;6.50;99.90;;;;;;5054808;28;20201;-66
2022/04/15 01:19:26;;;;;;;19.93;10.40;;;6.50;99.90;;;;;;5054557;28;20571;-65
2022/04/15 01:21:56;;;;;;;33.20;16.47;;;6.50;99.90;;;;;;5054672;28;20201;-66
2022/04/15 01:24:25;;;;;;;34.50;16.53;;;6.50;99.90;;;;;;5054579;28;20237;-65
2022/04/15 01:26:52;;;;;;;39.53;19.20;;;6.50;99.90;;;;;;5054734;28;20584;-66
2022/04/15 01:29:18;;;;;;;36.00;17.00;;;6.40;99.90;;;;;;5054154;28;20598;-65
2022/04/15 01:31:45;;;;;;;35.17;17.23;;;6.40;99.90;;;;;;5054661;28;20682;-66
2022/04/15 01:34:12;;;;;;;22.87;12.13;;;6.40;99.90;;;;;;5054239;28;20206;-65
2022/04/15 01:36:39;;;;;;;21.30;11.37;;;6.40;99.90;;;;;;5053922;28;20216;-66
2022/04/15 01:39:06;;;;;;;20.53;9.67;;;6.30;99.90;;;;;;5054133;28;20225;-65
2022/04/15 01:41:39;;;;;;;20.00;10.83;;;6.40;99.90;;;;;;5054331;28;20675;-66
2022/04/15 01:44:07;;;;;;;22.30;11.67;;;6.40;99.90;;;;;;5054334;28;20194;-65
2022/04/15 01:46:34;;;;;;;25.10;12.50;;;6.40;99.90;;;;;;5054233;28;20214;-66
2022/04/15 01:49:01;;;;;;;23.00;11.50;;;6.50;99.90;;;;;;5054183;28;20209;-66
2022/04/15 01:51:28;;;;;;;26.00;11.63;;;6.50;99.90;;;;;;5053971;28;20225;-66
2022/04/15 01:53:55;;;;;;;20.47;10.90;;;6.60;99.90;;;;;;5054128;28;20205;-65
2022/04/15 01:56:22;;;;;;;20.67;11.27;;;6.60;99.90;;;;;;5053521;28;20221;-66
2022/04/15 01:58:50;;;;;;;22.87;11.13;;;6.60;99.90;;;;;;5054115;28;20773;-65
2022/04/15 02:01:16;;;;;;;20.90;10.27;;;6.60;99.90;;;;;;5054067;28;20566;-65
2022/04/15 02:03:43;;;;;;;18.87;9.47;;;6.70;99.90;;;;;;5053813;28;20561;-64
2022/04/15 02:06:10;;;;;;;17.33;9.03;;;6.70;99.80;;;;;;5053979;28;20232;-66
2022/04/15 02:08:37;;;;;;;18.53;8.43;;;6.70;99.80;;;;;;5053560;28;20205;-65
2022/04/15 02:11:03;;;;;;;17.63;9.03;;;6.80;99.70;;;;;;5053504;28;20220;-65
2022/04/15 02:13:30;;;;;;;15.27;8.53;;;6.80;99.60;;;;;;5053576;28;20272;-65
2022/04/15 02:15:58;;;;;;;17.63;8.33;;;6.80;99.50;;;;;;5053412;28;20201;-66
2022/04/15 02:18:26;;;;;;;16.90;8.50;;;6.80;99.40;;;;;;5053452;28;20274;-65
2022/04/15 02:20:53;;;;;;;16.30;8.20;;;6.80;99.40;;;;;;5053374;28;20212;-65
2022/04/15 02:23:19;;;;;;;15.70;8.47;;;6.80;99.30;;;;;;5053233;28;20686;-66
2022/04/15 02:25:46;;;;;;;21.70;10.37;;;6.80;99.30;;;;;;5053343;28;20211;-65
2022/04/15 02:28:13;;;;;;;24.50;11.50;;;6.80;99.40;;;;;;5053507;28;20205;-65
2022/04/15 02:30:40;;;;;;;21.53;11.07;;;6.80;99.80;;;;;;5052855;28;20254;-65
2022/04/15 02:33:08;;;;;;;35.97;17.83;;;6.80;99.70;;;;;;5053318;28;20231;-65
2022/04/15 02:35:35;;;;;;;32.20;16.47;;;6.80;99.80;;;;;;5052871;28;20215;-67
2022/04/15 02:38:01;;;;;;;33.33;15.30;;;6.70;99.90;;;;;;5053006;28;20212;-66
2022/04/15 02:40:28;;;;;;;40.47;18.67;;;6.70;99.90;;;;;;5052540;28;20201;-65
2022/04/15 02:42:55;;;;;;;32.17;16.50;;;6.60;99.90;;;;;;5053109;28;20576;-65
2022/04/15 02:45:22;;;;;;;48.40;23.17;;;6.60;99.90;;;;;;5052941;28;20205;-67
2022/04/15 02:47:49;;;;;;;41.07;21.00;;;6.50;99.90;;;;;;5053143;28;20205;-66
2022/04/15 02:50:18;;;;;;;33.40;17.53;;;6.40;99.90;;;;;;5052849;28;20237;-66
2022/04/15 02:52:45;;;;;;;32.37;17.83;;;6.40;99.90;;;;;;5053445;28;20248;-66
2022/04/15 02:55:11;;;;;;;42.33;22.10;;;6.30;99.90;;;;;;5052882;28;20225;-66
2022/04/15 02:57:38;;;;;;;32.00;16.00;;;6.30;99.90;;;;;;5052931;28;20201;-65
2022/04/15 03:00:07;;;;;;;28.10;14.80;;;6.20;99.90;;;;;;5052925;28;20732;-66
2022/04/15 03:02:34;;;;;;;23.57;11.10;;;6.20;99.90;;;;;;5052798;28;20201;-66
2022/04/15 03:05:01;;;;;;;24.90;13.03;;;6.20;99.90;;;;;;5052780;28;20205;-65
2022/04/15 03:07:29;;;;;;;40.60;17.67;;;6.20;99.90;;;;;;5052187;28;20209;-65
2022/04/15 03:09:55;;;;;;;22.73;12.23;;;6.20;99.90;;;;;;5052958;28;20678;-65
2022/04/15 03:12:22;;;;;;;41.90;19.73;;;6.20;99.90;;;;;;5052439;28;20596;-65
2022/04/15 03:14:51;;;;;;;48.70;23.33;;;6.20;99.90;;;;;;5052649;28;20566;-65
2022/04/15 03:17:17;;;;;;;45.40;21.60;;;6.20;99.90;;;;;;5052353;28;20306;-66
2022/04/15 03:19:44;;;;;;;45.90;22.37;;;6.20;99.90;;;;;;5052416;28;20205;-67
2022/04/15 03:22:11;;;;;;;43.87;22.33;;;6.10;99.90;;;;;;5052062;28;20209;-65
2022/04/15 03:24:39;;;;;;;48.13;22.97;;;6.10;99.90;;;;;;5052618;28;20670;-66
2022/04/15 03:27:06;;;;;;;38.33;19.63;;;6.00;99.90;;;;;;5052402;28;20205;-65
2022/04/15 03:29:33;;;;;;;43.23;22.50;;;6.00;99.90;;;;;;5052138;28;20604;-66
2022/04/15 03:31:59;;;;;;;43.80;20.97;;;6.00;99.90;;;;;;5052216;28;20584;-65
2022/04/15 03:34:26;;;;;;;41.30;19.70;;;6.00;99.90;;;;;;5052171;28;20582;-65
2022/04/15 03:36:53;;;;;;;38.57;19.80;;;6.00;99.90;;;;;;5052276;28;20581;-65
2022/04/15 03:39:20;;;;;;;36.77;17.87;;;6.00;99.90;;;;;;5052051;28;20663;-66
2022/04/15 03:41:48;;;;;;;39.60;18.90;;;6.10;99.90;;;;;;5052068;28;20207;-65
2022/04/15 03:44:14;;;;;;;35.43;18.27;;;6.10;99.90;;;;;;5051961;28;20208;-65
2022/04/15 03:46:41;;;;;;;69.67;30.80;;;6.10;99.90;;;;;;5052023;28;20212;-65
2022/04/15 03:49:08;;;;;;;69.60;29.73;;;6.10;99.90;;;;;;5051894;28;20308;-65
2022/04/15 03:51:35;;;;;;;42.13;18.40;;;6.20;99.90;;;;;;5051015;28;20341;-65
2022/04/15 03:54:02;;;;;;;48.13;22.43;;;6.20;99.90;;;;;;5051745;28;20204;-66
2022/04/15 03:56:29;;;;;;;77.30;33.00;;;6.20;99.90;;;;;;5051848;28;20320;-66
2022/04/15 03:58:57;;;;;;;57.13;25.70;;;6.20;99.90;;;;;;5051786;28;20211;-65
2022/04/15 04:01:24;;;;;;;88.33;37.13;;;6.30;99.90;;;;;;5051555;28;20217;-66
2022/04/15 04:03:52;;;;;;;94.27;39.53;;;6.30;99.90;;;;;;5051684;28;20201;-65
2022/04/15 04:06:19;;;;;;;90.90;36.67;;;6.30;99.90;;;;;;5051693;28;20212;-65
2022/04/15 04:08:49;;;;;;;83.13;35.83;;;6.30;99.90;;;;;;5051803;28;20211;-67
2022/04/15 04:11:16;;;;;;;76.83;34.87;;;6.30;99.90;;;;;;5051758;28;20190;-66
2022/04/15 04:13:43;;;;;;;73.83;31.73;;;6.30;99.90;;;;;;5051528;28;20201;-66
2022/04/15 04:16:11;;;;;;;66.60;31.27;;;6.30;99.90;;;;;;5051610;28;20209;-66
2022/04/15 04:18:38;;;;;;;64.17;27.90;;;6.30;99.90;;;;;;5051474;28;20296;-65
2022/04/15 04:21:05;;;;;;;62.07;29.23;;;6.30;99.90;;;;;;5051610;28;20573;-65
2022/04/15 04:23:32;;;;;;;49.93;23.93;;;6.40;99.90;;;;;;5051728;28;20219;-65
2022/04/15 04:25:58;;;;;;;42.20;20.33;;;6.40;99.90;;;;;;5051817;28;20212;-66
2022/04/15 04:28:25;;;;;;;50.93;23.30;;;6.50;99.90;;;;;;5051415;28;20304;-67
2022/04/15 04:30:52;;;;;;;39.87;20.10;;;6.60;99.90;;;;;;5051261;28;20239;-66
2022/04/15 04:33:20;;;;;;;40.07;19.23;;;6.70;99.90;;;;;;5051380;28;20237;-66
2022/04/15 04:35:47;;;;;;;40.27;17.83;;;6.70;99.90;;;;;;5051544;28;20696;-65
2022/04/15 04:38:14;;;;;;;34.90;17.57;;;6.80;99.90;;;;;;5051755;28;20211;-67
2022/04/15 04:40:41;;;;;;;36.00;17.07;;;6.90;99.90;;;;;;5051563;28;20301;-65
2022/04/15 04:43:09;;;;;;;31.70;15.23;;;7.00;99.90;;;;;;5051031;28;20205;-65
2022/04/15 04:45:37;;;;;;;32.50;15.17;;;7.10;99.90;;;;;;5051502;28;20232;-65
2022/04/15 04:48:05;;;;;;;26.13;14.30;;;7.20;99.90;;;;;;5051499;28;20201;-65
2022/04/15 04:50:33;;;;;;;25.43;13.17;;;7.30;99.90;;;;;;5051392;28;20205;-66
2022/04/15 04:53:00;;;;;;;22.73;10.27;;;7.50;99.90;;;;;;5051548;28;20232;-65
2022/04/15 04:55:27;;;;;;;23.17;10.43;;;7.60;99.90;;;;;;5051447;28;20703;-65
2022/04/15 04:57:54;;;;;;;19.93;9.33;;;7.70;99.90;;;;;;5051441;28;20205;-65
2022/04/15 05:00:20;;;;;;;20.63;9.77;;;7.80;99.90;;;;;;5051284;28;20208;-66
2022/04/15 05:02:47;;;;;;;15.33;8.17;;;7.90;99.90;;;;;;5050989;28;20564;-66
2022/04/15 05:05:14;;;;;;;17.73;9.40;;;8.10;99.90;;;;;;5054825;28;20205;-65
2022/04/15 05:07:42;;;;;;;20.60;9.30;;;8.20;99.90;;;;;;5054964;28;20292;-66
2022/04/15 05:10:10;;;;;;;17.37;8.23;;;8.40;99.90;;;;;;5054505;28;20205;-66
2022/04/15 05:12:37;;;;;;;17.70;8.37;;;8.50;99.90;;;;;;5054423;28;20229;-66
2022/04/15 05:15:04;;;;;;;16.13;8.93;;;8.60;99.90;;;;;;5054699;28;20694;-65
2022/04/15 05:17:31;;;;;;;17.93;8.00;;;8.80;99.70;;;;;;5054450;28;20213;-67
2022/04/15 05:19:58;;;;;;;15.57;8.20;;;8.90;99.30;;;;;;5054485;28;20206;-65
2022/04/15 05:22:24;;;;;;;15.63;8.10;;;9.00;99.30;;;;;;5054665;28;20531;-65
2022/04/15 05:24:53;;;;;;;15.93;8.57;;;9.20;99.00;;;;;;5054524;28;20201;-66
2022/04/15 05:27:20;;;;;;;19.37;11.00;;;9.30;98.90;;;;;;5054472;28;20620;-66
2022/04/15 05:29:47;;;;;;;14.73;8.00;;;9.40;98.80;;;;;;5054114;28;20298;-67
2022/04/15 05:32:14;;;;;;;14.90;8.37;;;9.60;98.70;;;;;;5054172;28;20252;-66
2022/04/15 05:34:42;;;;;;;21.00;9.73;;;9.70;98.30;;;;;;5054422;28;20295;-65
2022/04/15 05:37:09;;;;;;;14.60;7.70;;;9.90;98.50;;;;;;5054221;28;20228;-66
2022/04/15 05:39:36;;;;;;;12.57;6.97;;;10.00;98.20;;;;;;5054357;28;20546;-65
2022/04/15 05:42:05;;;;;;;11.60;5.50;;;10.10;98.20;;;;;;5054206;28;20197;-65
2022/04/15 05:44:31;;;;;;;11.27;6.23;;;10.30;98.10;;;;;;5054105;28;20205;-66
2022/04/15 05:46:58;;;;;;;11.03;6.37;;;10.40;97.90;;;;;;5053821;28;20205;-66
2022/04/15 05:49:25;;;;;;;10.37;5.67;;;10.40;97.40;;;;;;5053917;28;20205;-65
2022/04/15 05:51:52;;;;;;;8.67;4.77;;;10.60;97.10;;;;;;5053972;28;20210;-66
2022/04/15 05:54:19;;;;;;;8.93;4.07;;;10.70;96.80;;;;;;5053931;28;20628;-65
2022/04/15 05:56:47;;;;;;;8.93;4.37;;;10.80;96.40;;;;;;5054014;28;20683;-66
2022/04/15 05:59:15;;;;;;;9.30;4.43;;;10.90;96.20;;;;;;5054040;28;20683;-66
2022/04/15 06:01:42;;;;;;;8.70;4.30;;;11.00;96.30;;;;;;5054010;28;20205;-65
2022/04/15 06:04:08;;;;;;;9.27;4.30;;;11.10;95.70;;;;;;5053629;28;20197;-66
2022/04/15 06:06:35;;;;;;;6.87;3.90;;;11.20;95.90;;;;;;5053840;28;20664;-65
2022/04/15 06:09:02;;;;;;;7.97;4.00;;;11.30;95.90;;;;;;5053697;28;20208;-65
2022/04/15 06:11:29;;;;;;;9.13;4.00;;;11.50;95.40;;;;;;5053764;28;20558;-65
2022/04/15 06:13:55;;;;;;;10.10;4.30;;;11.50;95.20;;;;;;5053579;28;20583;-64
2022/04/15 06:16:26;;;;;;;7.93;4.03;;;11.60;95.20;;;;;;5052824;28;20216;-66
2022/04/15 06:18:52;;;;;;;7.07;4.37;;;11.70;95.20;;;;;;5053639;28;20185;-66
2022/04/15 06:21:19;;;;;;;8.63;4.67;;;11.80;95.30;;;;;;5053202;28;20209;-66
2022/04/15 06:23:46;;;;;;;6.90;4.07;;;11.90;94.90;;;;;;5053160;28;20304;-66
2022/04/15 06:26:13;;;;;;;7.60;4.30;;;12.00;94.90;;;;;;5053502;28;20205;-67
2022/04/15 06:28:39;;;;;;;11.53;4.63;;;12.10;94.10;;;;;;5052847;28;20205;-66
2022/04/15 06:31:06;;;;;;;7.23;4.20;;;12.20;93.90;;;;;;5052976;28;20213;-66
2022/04/15 06:33:36;;;;;;;8.97;4.67;;;12.30;93.90;;;;;;5052745;28;20217;-66
2022/04/15 06:36:04;;;;;;;10.50;5.50;;;12.30;94.10;;;;;;5053234;28;20284;-67
2022/04/15 06:38:31;;;;;;;12.37;4.97;;;12.40;93.80;;;;;;5053195;28;20201;-66
2022/04/15 06:40:57;;;;;;;13.23;5.80;;;12.50;93.60;;;;;;5052585;28;20216;-65
2022/04/15 06:43:25;;;;;;;10.07;5.40;;;12.60;93.80;;;;;;5053003;28;20660;-65
2022/04/15 06:45:51;;;;;;;9.97;4.93;;;12.60;93.90;;;;;;5053125;28;20201;-66
2022/04/15 06:48:18;;;;;;;9.53;5.00;;;12.80;93.70;;;;;;5052986;28;20216;-67
2022/04/15 06:50:46;;;;;;;8.77;4.63;;;12.80;93.70;;;;;;5052901;28;20545;-65
2022/04/15 06:53:13;;;;;;;6.17;3.93;;;12.90;93.40;;;;;;5052689;28;20585;-67
2022/04/15 06:55:41;;;;;;;10.27;4.07;;;13.00;93.10;;;;;;5052653;28;20221;-67
2022/04/15 06:58:08;;;;;;;6.03;3.60;;;13.10;92.20;;;;;;5052862;28;20240;-67
2022/04/15 07:00:36;;;;;;;7.90;3.70;;;13.20;92.00;;;;;;5052606;28;20211;-68
2022/04/15 07:03:03;;;;;;;6.40;3.60;;;13.30;91.10;;;;;;5052841;28;20228;-66
2022/04/15 07:05:30;;;;;;;5.97;3.53;;;13.40;91.20;;;;;;5052691;28;20662;-67
2022/04/15 07:07:58;;;;;;;7.43;3.43;;;13.50;91.60;;;;;;5052391;28;20202;-66
2022/04/15 07:10:25;;;;;;;6.63;3.53;;;13.50;90.70;;;;;;5052644;28;20205;-67
2022/04/15 07:12:52;;;;;;;5.73;3.53;;;13.60;90.70;;;;;;5052420;28;20229;-66
2022/04/15 07:15:20;;;;;;;5.07;3.10;;;13.70;90.80;;;;;;5052254;28;20205;-67
2022/04/15 07:17:47;;;;;;;4.93;3.10;;;13.80;90.50;;;;;;5052166;28;20316;-66
2022/04/15 07:20:14;;;;;;;5.20;3.33;;;13.90;90.20;;;;;;5052351;28;20292;-67
2022/04/15 07:22:40;;;;;;;4.23;3.00;;;13.90;90.10;;;;;;5052371;28;20198;-67
2022/04/15 07:25:10;;;;;;;5.47;3.40;;;14.00;90.00;;;;;;5052267;28;20223;-66
2022/04/15 07:27:37;;;;;;;4.87;2.80;;;14.10;90.00;;;;;;5051545;28;20231;-65
2022/04/15 07:30:04;;;;;;;8.37;2.93;;;14.10;88.40;;;;;;5052202;28;20229;-66
2022/04/15 07:32:31;;;;;;;9.23;3.80;;;14.20;87.30;;;;;;5052635;28;20211;-67
2022/04/15 07:34:58;;;;;;;6.20;2.97;;;14.30;86.90;;;;;;5051947;28;20205;-67
2022/04/15 07:37:25;;;;;;;6.30;3.13;;;14.40;87.20;;;;;;5051886;28;20214;-66
2022/04/15 07:39:52;;;;;;;4.90;2.63;;;14.40;86.50;;;;;;5051724;28;20209;-66
2022/04/15 07:42:20;;;;;;;4.47;2.57;;;14.50;87.50;;;;;;5051645;28;20228;-66
2022/04/15 07:44:46;;;;;;;5.23;2.70;;;14.60;87.60;;;;;;5051864;28;20664;-66
2022/04/15 07:47:13;;;;;;;4.00;2.70;;;14.60;88.20;;;;;;5051681;28;20206;-67
2022/04/15 07:49:40;;;;;;;6.83;3.10;;;14.70;88.00;;;;;;5051359;28;20209;-66
2022/04/15 07:52:08;;;;;;;4.90;3.13;;;14.80;88.30;;;;;;5051844;28;20263;-65
2022/04/15 07:54:35;;;;;;;5.67;2.90;;;14.80;87.40;;;;;;5051526;28;20229;-66
2022/04/15 07:57:03;;;;;;;9.60;3.00;;;14.90;86.90;;;;;;5051713;28;20604;-65
2022/04/15 07:59:31;;;;;;;11.23;3.57;;;14.90;86.60;;;;;;5052118;28;20241;-67
2022/04/15 08:01:59;;;;;;;9.47;3.20;;;15.00;87.40;;;;;;5051759;28;20216;-67
2022/04/15 08:04:26;;;;;;;5.40;3.40;;;15.00;87.70;;;;;;5051924;28;20205;-68
2022/04/15 08:06:53;;;;;;;5.07;3.20;;;15.10;87.60;;;;;;5051857;28;20605;-70
2022/04/15 08:09:20;;;;;;;6.00;3.10;;;15.20;86.60;;;;;;5051933;28;20266;-66
2022/04/15 08:11:47;;;;;;;4.67;2.80;;;15.20;85.60;;;;;;5051827;28;20212;-68
2022/04/15 08:14:14;;;;;;;5.47;2.80;;;15.30;86.20;;;;;;5051595;28;20217;-69
2022/04/15 08:16:42;;;;;;;7.83;2.90;;;15.30;86.30;;;;;;5051442;28;20244;-68
2022/04/15 08:19:09;;;;;;;6.77;3.27;;;15.40;84.70;;;;;;5051179;28;20220;-67
2022/04/15 08:21:36;;;;;;;4.87;2.87;;;15.40;84.60;;;;;;5051030;28;20298;-66
2022/04/15 08:24:03;;;;;;;5.40;3.33;;;15.40;84.30;;;;;;5051590;28;20667;-66
2022/04/15 08:26:30;;;;;;;5.50;2.73;;;15.50;84.50;;;;;;5051304;28;20572;-66
2022/04/15 08:28:57;;;;;;;8.70;2.87;;;15.60;85.00;;;;;;5051413;28;20210;-66
2022/04/15 08:31:24;;;;;;;6.33;3.10;;;15.60;85.30;;;;;;5051992;28;20247;-70
2022/04/15 08:33:52;;;;;;;5.10;3.20;;;15.70;85.00;;;;;;5051297;28;20252;-66
2022/04/15 08:36:19;;;;;;;4.40;2.70;;;15.70;84.60;;;;;;5051339;28;20572;-65
2022/04/15 08:38:46;;;;;;;6.87;2.83;;;15.80;83.60;;;;;;5052852;28;20671;-66
2022/04/15 08:41:14;;;;;;;6.40;3.10;;;15.80;83.20;;;;;;5055216;28;20205;-68
2022/04/15 08:43:42;;;;;;;5.37;3.10;;;15.80;83.10;;;;;;5055253;28;20677;-67
2022/04/15 08:46:10;;;;;;;4.63;3.03;;;15.90;82.10;;;;;;5055184;28;20209;-68
2022/04/15 08:48:38;;;;;;;5.00;3.00;;;15.90;81.90;;;;;;5055167;28;20212;-68
2022/04/15 08:51:08;;;;;;;4.50;3.00;;;16.00;81.40;;;;;;5055087;28;20205;-65
2022/04/15 08:53:36;;;;;;;9.43;3.50;;;16.00;81.30;;;;;;5054766;28;20319;-67
2022/04/15 08:56:04;;;;;;;6.33;3.17;;;16.10;80.70;;;;;;5055121;28;20316;-67
2022/04/15 08:58:31;;;;;;;4.10;2.70;;;16.10;80.30;;;;;;5055009;28;20677;-66
2022/04/15 09:00:58;;;;;;;6.07;3.23;;;16.20;80.30;;;;;;5055035;28;20210;-66
2022/04/15 09:03:24;;;;;;;5.80;3.23;;;16.20;80.00;;;;;;5054535;28;20668;-67
2022/04/15 09:05:52;;;;;;;4.23;2.90;;;16.20;79.50;;;;;;5054569;28;20206;-66
2022/04/15 09:08:20;;;;;;;6.10;3.60;;;16.30;79.70;;;;;;5054750;28;20548;-67
2022/04/15 09:10:56;;;;;;;6.10;3.10;;;16.40;80.20;;;;;;5054432;28;20202;-67
2022/04/15 09:13:28;;;;;;;10.27;3.73;;;16.50;80.20;;;;;;5054519;28;20259;-66
2022/04/15 09:15:55;;;;;;;6.47;3.47;;;16.50;79.30;;;;;;5054365;28;20194;-66
2022/04/15 09:18:32;;;;;;;5.57;3.23;;;16.50;79.20;;;;;;5054360;28;20205;-67
2022/04/15 09:21:19;;;;;;;6.37;3.43;;;16.60;78.50;;;;;;5054741;28;20692;-66
2022/04/15 09:23:49;;;;;;;5.10;3.20;;;16.60;79.10;;;;;;5054592;28;20205;-68
2022/04/15 09:26:17;;;;;;;5.23;3.20;;;16.70;79.40;;;;;;5054482;28;20194;-67
2022/04/15 09:28:44;;;;;;;6.57;3.23;;;16.70;78.20;;;;;;5054297;28;20202;-67
2022/04/15 09:31:13;;;;;;;5.40;3.37;;;16.80;78.80;;;;;;5054402;28;20194;-67
2022/04/15 09:33:53;;;;;;;5.57;3.13;;;16.80;78.90;;;;;;5054280;28;20378;-66
2022/04/15 09:36:26;;;;;;;9.17;3.57;;;16.90;78.10;;;;;;5053907;28;20197;-67
2022/04/15 09:39:02;;;;;;;7.00;3.70;;;16.90;78.10;;;;;;5054366;28;20285;-67
2022/04/15 09:41:32;;;;;;;6.60;3.57;;;17.00;78.30;;;;;;5054323;28;20194;-65
2022/04/15 09:44:01;;;;;;;4.60;2.93;;;17.00;78.30;;;;;;5053895;28;20202;-66
2022/04/15 09:46:29;;;;;;;5.43;3.23;;;17.10;77.80;;;;;;5053953;28;20218;-65
2022/04/15 09:49:02;;;;;;;5.60;3.07;;;17.10;77.30;;;;;;5053701;28;20213;-67
2022/04/15 09:51:31;;;;;;;5.77;3.30;;;17.20;76.50;;;;;;5053680;28;20194;-67
2022/04/15 09:54:01;;;;;;;5.27;3.20;;;17.20;76.10;;;;;;5053800;28;20252;-68
2022/04/15 09:56:31;;;;;;;9.20;3.20;;;17.30;76.50;;;;;;5053682;28;20212;-66
2022/04/15 09:59:04;;;;;;;6.17;3.20;;;17.40;76.30;;;;;;5054065;28;20194;-67
2022/04/15 10:01:33;;;;;;;4.87;2.87;;;17.50;76.60;;;;;;5053979;28;20633;-66
2022/04/15 10:04:00;;;;;;;7.30;3.87;;;17.60;76.20;;;;;;5053937;28;20206;-67
2022/04/15 10:06:29;;;;;;;7.47;3.37;;;17.60;75.40;;;;;;5053386;28;20213;-66
2022/04/15 10:09:02;;;;;;;7.80;3.30;;;17.70;76.20;;;;;;5053681;28;20340;-67
2022/04/15 10:11:31;;;;;;;6.30;2.97;;;17.70;74.90;;;;;;5053616;28;20195;-66
2022/04/15 10:13:59;;;;;;;5.23;2.57;;;17.80;75.00;;;;;;5053497;28;20258;-67
2022/04/15 10:16:27;;;;;;;8.50;3.47;;;17.90;74.40;;;;;;5053089;28;20217;-67
2022/04/15 10:18:54;;;;;;;8.07;3.70;;;17.90;74.40;;;;;;5053372;28;20206;-66
2022/04/15 10:21:21;;;;;;;4.50;2.83;;;18.00;74.70;;;;;;5053045;28;20209;-66
2022/04/15 10:23:48;;;;;;;6.53;3.20;;;18.00;74.80;;;;;;5053535;28;20582;-66
2022/04/15 10:26:19;;;;;;;6.03;3.13;;;18.10;73.60;;;;;;5053273;28;20227;-66
2022/04/15 10:28:48;;;;;;;4.67;3.13;;;18.20;73.30;;;;;;5053195;28;20555;-66
2022/04/15 10:31:17;;;;;;;6.17;3.70;;;18.20;74.20;;;;;;5052831;28;20201;-67
2022/04/15 10:33:49;;;;;;;5.73;3.57;;;18.20;74.40;;;;;;5052924;28;20224;-66
2022/04/15 10:36:17;;;;;;;5.27;3.10;;;18.30;73.90;;;;;;5052863;28;20201;-66
2022/04/15 10:39:12;;;;;;;7.23;3.60;;;18.40;74.10;;;;;;5052929;28;20208;-67
2022/04/15 10:41:52;;;;;;;6.00;3.57;;;18.40;74.10;;;;;;5052822;28;20216;-67
2022/04/15 10:44:26;;;;;;;7.13;3.23;;;18.50;73.50;;;;;;5052542;28;20190;-71
2022/04/15 10:46:53;;;;;;;6.33;3.33;;;18.50;73.20;;;;;;5052825;28;20188;-67
2022/04/15 10:49:23;;;;;;;5.17;3.13;;;18.60;72.70;;;;;;5052989;28;20574;-66
2022/04/15 10:51:52;;;;;;;6.87;3.40;;;18.70;72.30;;;;;;5052600;28;20219;-67
2022/04/15 10:54:30;;;;;;;5.80;3.40;;;18.70;73.00;;;;;;5052727;28;20634;-72
2022/04/15 10:57:02;;;;;;;7.00;3.67;;;18.80;72.50;;;;;;5052934;28;20191;-66
2022/04/15 11:02:17;;;;;;;6.47;3.57;;;18.80;72.10;;;;;;5051991;28;20193;-66
2022/04/15 11:04:49;;;;;;;8.43;4.27;;;18.90;71.80;;;;;;5052590;28;20220;-67
2022/04/15 11:07:17;;;;;;;5.70;3.27;;;18.90;71.20;;;;;;5052684;28;20192;-66
2022/04/15 11:09:44;;;;;;;6.37;3.67;;;18.90;70.90;;;;;;5052632;28;20225;-66
2022/04/15 11:12:12;;;;;;;6.93;3.43;;;18.90;70.90;;;;;;5052337;28;20201;-66
2022/04/15 11:14:44;;;;;;;6.10;3.80;;;19.00;71.20;;;;;;5052101;28;20231;-67
2022/04/15 11:17:14;;;;;;;5.33;3.20;;;19.00;70.30;;;;;;5052073;28;20284;-66
2022/04/15 11:19:42;;;;;;;5.30;3.60;;;19.00;71.10;;;;;;5052416;28;20599;-66
2022/04/15 11:22:10;;;;;;;6.30;3.50;;;19.00;70.70;;;;;;5052200;28;20213;-67
2022/04/15 11:24:38;;;;;;;5.93;3.77;;;19.00;70.90;;;;;;5052083;28;20662;-66
2022/04/15 11:27:05;;;;;;;8.10;3.67;;;19.00;71.40;;;;;;5051879;28;20211;-67
2022/04/15 11:29:35;;;;;;;5.50;3.60;;;19.10;71.00;;;;;;5052029;28;20603;-68
2022/04/15 11:32:05;;;;;;;6.13;3.47;;;19.10;70.40;;;;;;5052012;28;20212;-66
2022/04/15 11:34:33;;;;;;;8.07;4.30;;;19.20;70.50;;;;;;5051844;28;20214;-67
2022/04/15 11:37:03;;;;;;;7.87;4.67;;;19.20;70.20;;;;;;5052148;28;20579;-66
2022/04/15 11:39:30;;;;;;;6.43;3.80;;;19.30;69.40;;;;;;5052348;28;20451;-68
2022/04/15 11:41:58;;;;;;;12.43;3.90;;;19.30;69.70;;;;;;5051871;28;20684;-67
2022/04/15 11:44:30;;;;;;;6.17;3.83;;;19.30;69.70;;;;;;5051774;28;20202;-66
2022/04/15 11:47:16;;;;;;;5.10;3.30;;;19.30;69.90;;;;;;5051966;28;20243;-66
2022/04/15 11:49:43;;;;;;;7.17;3.63;;;19.40;69.90;;;;;;5051915;28;20280;-66
2022/04/15 11:52:11;;;;;;;5.40;3.47;;;19.40;69.80;;;;;;5051285;28;20229;-67
2022/04/15 11:54:39;;;;;;;5.63;3.33;;;19.40;70.30;;;;;;5051724;28;20311;-69
2022/04/15 11:57:07;;;;;;;6.50;3.67;;;19.50;69.00;;;;;;5051715;28;20619;-69
2022/04/15 11:59:38;;;;;;;7.27;3.87;;;19.50;68.00;;;;;;5052078;28;20206;-66
2022/04/15 12:02:07;;;;;;;8.20;3.93;;;19.50;68.90;;;;;;5051375;28;20250;-67
2022/04/15 12:04:34;;;;;;;12.30;3.83;;;19.50;68.50;;;;;;5051852;28;20215;-67
2022/04/15 12:07:01;;;;;;;7.50;4.37;;;19.60;68.70;;;;;;5051687;28;20686;-66
2022/04/15 12:09:28;;;;;;;6.03;3.73;;;19.60;69.10;;;;;;5054529;28;20207;-68
2022/04/15 12:11:55;;;;;;;6.83;3.77;;;19.60;68.90;;;;;;5054872;28;20251;-68
2022/04/15 12:14:37;;;;;;;9.23;4.00;;;19.60;68.70;;;;;;5058897;28;20712;-69
2022/04/15 12:17:04;;;;;;;8.23;4.20;;;19.60;68.40;;;;;;5055848;28;20189;-66
2022/04/15 12:19:32;;;;;;;7.37;4.30;;;19.60;68.80;;;;;;5055637;28;20584;-67
2022/04/15 12:22:00;;;;;;;7.43;3.87;;;19.60;67.40;;;;;;5055473;28;20205;-67
2022/04/15 12:24:30;;;;;;;5.73;3.40;;;19.60;67.60;;;;;;5055341;28;20300;-66
2022/04/15 12:26:59;;;;;;;4.20;3.00;;;19.70;67.90;;;;;;5055045;28;20240;-67
2022/04/15 12:32:21;;;;;;;5.87;3.43;;;19.70;67.10;;;;;;5055090;28;20184;-67
2022/04/15 12:34:50;;;;;;;8.77;3.53;;;19.70;67.70;;;;;;5055491;28;20215;-68
2022/04/15 12:37:37;;;;;;;5.63;3.40;;;19.70;67.30;;;;;;5055346;28;20205;-68
2022/04/15 12:40:06;;;;;;;4.33;2.97;;;19.80;66.70;;;;;;5055341;28;20560;-67
2022/04/15 12:42:35;;;;;;;6.20;3.30;;;19.80;66.50;;;;;;5055375;28;20270;-67
2022/04/15 12:45:03;;;;;;;5.80;3.07;;;19.80;66.70;;;;;;5055218;28;20227;-67
2022/04/15 12:47:30;;;;;;;7.53;3.27;;;19.90;66.60;;;;;;5054986;28;20209;-67
2022/04/15 12:50:23;;;;;;;7.13;3.27;;;19.90;66.60;;;;;;5055152;28;20497;-67
2022/04/15 12:52:52;;;;;;;6.03;3.30;;;19.90;66.50;;;;;;5055050;28;20246;-68